Time;durP1;ratioP1;P1;durP2;ratioP2;P2;SDS_P1;SDS_P2;PMS_P1;PMS_P2;Temp;Humidity;BMP_temperature;BMP_pressure;BME280_temperature;BME280_humidity;BME280_pressure;Samples;Min_cycle;Max_cycle;Signal;HPM_P1;HPM_P2
2022/08/16 00:02:28;;;;;;;13.60;10.90;;;;;;;18.35;93.55;95935.32;108289;1270;22655;-76
2022/08/16 00:05:00;;;;;;;10.30;9.00;;;;;;;18.33;93.52;95931.91;108124;1273;22542;-76
2022/08/16 00:07:32;;;;;;;12.20;10.90;;;;;;;18.34;93.55;95935.53;108305;1270;24281;-76
2022/08/16 00:10:04;;;;;;;11.20;10.00;;;;;;;18.34;93.35;95932.70;108219;1270;23892;-76
2022/08/16 00:12:35;;;;;;;12.00;10.30;;;;;;;18.32;93.17;95931.36;108218;1271;22598;-76
2022/08/16 00:15:12;;;;;;;11.80;10.10;;;;;;;18.31;93.18;95925.58;108322;1271;22497;-76
2022/08/16 00:17:43;;;;;;;12.40;9.90;;;;;;;18.31;93.11;95923.49;108174;1270;40587;-76
2022/08/16 00:20:14;;;;;;;13.50;10.30;;;;;;;18.30;93.03;95919.97;108246;1270;22663;-76
2022/08/16 00:22:46;;;;;;;11.20;10.00;;;;;;;18.30;92.95;95916.44;108356;1271;22589;-76
2022/08/16 00:25:20;;;;;;;11.70;9.90;;;;;;;18.27;92.68;95915.11;108321;1270;22468;-76
2022/08/16 00:27:51;;;;;;;11.40;10.20;;;;;;;18.24;92.77;95911.27;108247;1271;43695;-76
2022/08/16 00:30:23;;;;;;;11.50;10.30;;;;;;;18.23;92.88;95910.16;108338;1270;24652;-76
2022/08/16 00:32:57;;;;;;;11.40;10.20;;;;;;;18.19;92.81;95908.86;108273;1270;22498;-76
2022/08/16 00:35:32;;;;;;;11.60;10.40;;;;;;;18.17;92.84;95913.86;108284;1270;22571;-76
2022/08/16 00:38:04;;;;;;;12.60;10.90;;;;;;;18.17;92.88;95914.63;108183;1270;30923;-76
2022/08/16 00:40:38;;;;;;;12.10;9.90;;;;;;;18.19;92.98;95917.51;108290;1271;22839;-76
2022/08/16 00:43:13;;;;;;;11.10;10.00;;;;;;;18.20;92.98;95918.92;108293;1270;22818;-76
2022/08/16 00:45:52;;;;;;;11.60;9.40;;;;;;;18.21;92.94;95920.64;108309;1270;22542;-76
2022/08/16 00:48:24;;;;;;;13.20;10.20;;;;;;;18.22;93.04;95923.34;108215;1271;25990;-76
2022/08/16 00:50:56;;;;;;;11.20;10.00;;;;;;;18.24;93.03;95925.45;108268;1270;22548;-76
2022/08/16 00:53:27;;;;;;;11.10;10.00;;;;;;;18.23;92.95;95921.77;108289;1270;22838;-77
2022/08/16 00:56:04;;;;;;;11.40;9.50;;;;;;;18.24;92.93;95923.46;108262;1271;24268;-76
2022/08/16 00:58:39;;;;;;;11.30;9.60;;;;;;;18.28;93.12;95925.48;108166;1271;34227;-76
2022/08/16 01:01:11;;;;;;;11.60;10.40;;;;;;;18.33;92.89;95927.86;108282;1270;22593;-76
2022/08/16 01:03:46;;;;;;;12.30;10.00;;;;;;;18.34;92.57;95922.44;108262;1270;22542;-76
2022/08/16 01:06:19;;;;;;;11.30;10.10;;;;;;;18.35;92.46;95923.23;108146;1271;23733;-76
2022/08/16 01:08:55;;;;;;;10.50;9.30;;;;;;;18.34;92.21;95920.21;108207;1271;25758;-76
2022/08/16 01:11:27;;;;;;;10.70;9.50;;;;;;;18.32;92.22;95917.56;108165;1273;24417;-76
2022/08/16 01:14:04;;;;;;;10.90;9.80;;;;;;;18.29;92.23;95920.02;108269;1271;23913;-76
2022/08/16 01:16:36;;;;;;;9.70;8.70;;;;;;;18.29;92.10;95926.83;108250;1271;22580;-76
2022/08/16 01:19:14;;;;;;;10.70;9.20;;;;;;;18.29;92.01;95923.20;108133;1271;42893;-76
2022/08/16 01:21:53;;;;;;;10.70;9.50;;;;;;;18.29;92.01;95924.81;108267;1271;24180;-76
2022/08/16 01:24:31;;;;;;;10.30;9.10;;;;;;;18.29;91.98;95926.98;108249;1271;22605;-76
2022/08/16 01:27:09;;;;;;;11.50;9.80;;;;;;;18.31;92.04;95924.83;108317;1271;22524;-76
2022/08/16 01:29:46;;;;;;;10.40;8.80;;;;;;;18.31;92.06;95926.11;108245;1271;22675;-76
2022/08/16 01:32:17;;;;;;;11.00;9.30;;;;;;;18.32;91.98;95926.14;108243;1271;22536;-76
2022/08/16 01:34:49;;;;;;;11.60;10.00;;;;;;;18.32;91.94;95921.70;108233;1271;22757;-76
2022/08/16 01:37:23;;;;;;;10.90;9.70;;;;;;;18.33;91.84;95920.02;108268;1271;22547;-76
2022/08/16 01:39:54;;;;;;;11.30;9.50;;;;;;;18.30;91.57;95918.27;108199;1271;24989;-76
2022/08/16 01:42:26;;;;;;;11.30;9.90;;;;;;;18.27;91.66;95921.02;108242;1271;24197;-76
2022/08/16 01:44:57;;;;;;;12.10;10.10;;;;;;;18.24;91.69;95917.58;108231;1271;22533;-76
2022/08/16 01:47:31;;;;;;;12.70;10.40;;;;;;;18.21;91.66;95917.86;108241;1271;24037;-76
2022/08/16 01:50:07;;;;;;;10.30;9.30;;;;;;;18.19;91.68;95920.90;108197;1271;31197;-76
2022/08/16 01:52:39;;;;;;;10.70;9.60;;;;;;;18.18;91.62;95922.94;108287;1271;22516;-76
2022/08/16 01:55:13;;;;;;;11.20;10.00;;;;;;;18.17;91.61;95926.19;108271;1271;22729;-76
2022/08/16 01:57:45;;;;;;;10.70;9.70;;;;;;;18.15;91.45;95927.14;108176;1271;39845;-76
2022/08/16 02:00:19;;;;;;;10.40;9.40;;;;;;;18.14;91.51;95931.33;108286;1271;22607;-76
2022/08/16 02:02:50;;;;;;;11.00;9.40;;;;;;;18.14;91.55;95932.16;108265;1271;25377;-76
2022/08/16 02:05:22;;;;;;;9.80;8.70;;;;;;;18.09;91.47;95930.58;108226;1271;22699;-76
2022/08/16 02:07:53;;;;;;;10.10;9.00;;;;;;;18.03;91.44;95928.45;108189;1271;23291;-76
2022/08/16 02:10:24;;;;;;;9.50;8.60;;;;;;;18.00;91.37;95925.11;108119;1274;22569;-76
2022/08/16 02:12:56;;;;;;;10.60;8.90;;;;;;;17.98;91.34;95927.52;108157;1271;25386;-76
2022/08/16 02:15:29;;;;;;;9.50;8.50;;;;;;;17.93;91.28;95929.39;108230;1271;22682;-76
2022/08/16 02:18:02;;;;;;;11.70;9.10;;;;;;;17.89;91.28;95927.59;108185;1271;41208;-76
2022/08/16 02:20:37;;;;;;;10.70;8.80;;;;;;;17.86;91.32;95927.63;108213;1271;22531;-76
2022/08/16 02:23:11;;;;;;;10.10;9.00;;;;;;;17.86;91.58;95928.25;108215;1271;22826;-76
2022/08/16 02:25:42;;;;;;;9.40;8.40;;;;;;;17.88;91.67;95925.71;108263;1271;23844;-76
2022/08/16 02:28:16;;;;;;;9.80;8.70;;;;;;;17.86;91.48;95923.58;108152;1271;38189;-76
2022/08/16 02:30:47;;;;;;;10.70;9.10;;;;;;;17.82;91.42;95919.20;108253;1271;22564;-76
2022/08/16 02:33:19;;;;;;;11.10;9.10;;;;;;;17.81;91.50;95916.48;108157;1271;23846;-76
2022/08/16 02:35:50;;;;;;;10.60;9.40;;;;;;;17.79;91.50;95913.39;108181;1271;22558;-76
2022/08/16 02:38:21;;;;;;;10.10;8.90;;;;;;;17.82;91.77;95915.96;108178;1271;32948;-76
2022/08/16 02:40:53;;;;;;;11.50;8.80;;;;;;;17.86;91.62;95916.92;108236;1271;22470;-76
2022/08/16 02:43:24;;;;;;;10.90;9.60;;;;;;;17.88;91.39;95918.20;108237;1271;22498;-76
2022/08/16 02:45:55;;;;;;;10.60;9.20;;;;;;;17.90;91.43;95919.41;108238;1270;23908;-76
2022/08/16 02:48:29;;;;;;;12.80;8.70;;;;;;;17.93;91.49;95921.65;108190;1271;23481;-76
2022/08/16 02:51:02;;;;;;;9.70;8.20;;;;;;;17.95;91.37;95919.01;108314;1271;22738;-76
2022/08/16 02:53:34;;;;;;;10.50;8.50;;;;;;;17.96;91.39;95918.18;108260;1271;22568;-76
2022/08/16 02:56:08;;;;;;;9.70;8.50;;;;;;;17.99;91.39;95921.80;108238;1271;23884;-76
2022/08/16 02:58:40;;;;;;;9.10;8.20;;;;;;;18.00;91.22;95918.84;108198;1271;33170;-76
2022/08/16 03:01:11;;;;;;;10.00;8.10;;;;;;;17.98;90.92;95918.55;108211;1271;22474;-76
2022/08/16 03:03:42;;;;;;;10.50;8.60;;;;;;;17.97;90.77;95916.69;108258;1271;22559;-76
2022/08/16 03:06:17;;;;;;;9.00;8.10;;;;;;;17.98;90.66;95922.09;108254;1271;22463;-76
2022/08/16 03:08:49;;;;;;;11.20;8.40;;;;;;;17.99;90.49;95920.72;108225;1271;28086;-76
2022/08/16 03:11:21;;;;;;;9.20;8.00;;;;;;;17.99;90.25;95923.42;108271;1271;22566;-76
2022/08/16 03:13:54;;;;;;;8.80;7.90;;;;;;;17.99;90.16;95925.55;108250;1271;22575;-76
2022/08/16 03:16:26;;;;;;;10.30;8.30;;;;;;;18.02;90.11;95926.41;108250;1271;23221;-76
2022/08/16 03:18:58;;;;;;;9.10;7.30;;;;;;;18.04;89.82;95920.48;108143;1271;29385;-76
2022/08/16 03:21:29;;;;;;;8.50;7.60;;;;;;;18.07;89.87;95918.27;108266;1271;22500;-76
2022/08/16 03:24:00;;;;;;;9.30;7.90;;;;;;;18.11;89.69;95920.81;108218;1271;25380;-76
2022/08/16 03:26:31;;;;;;;9.50;7.60;;;;;;;18.12;89.52;95920.83;108223;1271;22712;-76
2022/08/16 03:29:02;;;;;;;8.90;8.00;;;;;;;18.12;89.32;95925.29;108129;1271;42663;-76
2022/08/16 03:31:33;;;;;;;9.30;8.10;;;;;;;18.08;89.21;95927.50;108278;1270;22604;-76
2022/08/16 03:34:04;;;;;;;10.10;8.60;;;;;;;18.06;89.25;95926.05;108290;1271;22490;-76
2022/08/16 03:36:35;;;;;;;9.70;8.30;;;;;;;18.01;89.35;95926.75;108255;1271;22580;-76
2022/08/16 03:39:09;;;;;;;9.00;8.10;;;;;;;17.87;89.67;95926.38;108128;1270;35198;-76
2022/08/16 03:41:41;;;;;;;10.30;8.50;;;;;;;17.76;90.06;95927.16;108145;1271;25841;-76
2022/08/16 03:44:12;;;;;;;8.90;8.00;;;;;;;17.72;90.38;95928.79;108179;1271;22682;-76
2022/08/16 03:46:43;;;;;;;9.90;8.00;;;;;;;17.71;90.56;95932.28;108171;1271;23020;-76
2022/08/16 03:49:16;;;;;;;11.00;7.90;;;;;;;17.73;90.72;95926.54;108157;1271;29741;-76
2022/08/16 03:51:47;;;;;;;11.00;8.20;;;;;;;17.78;90.71;95933.50;108226;1270;22646;-76
2022/08/16 03:54:18;;;;;;;8.70;7.60;;;;;;;17.83;90.67;95934.68;108248;1270;22561;-76
2022/08/16 03:56:51;;;;;;;8.90;8.00;;;;;;;17.86;90.49;95936.54;108232;1271;23595;-76
2022/08/16 03:59:22;;;;;;;10.30;8.30;;;;;;;17.91;90.26;95936.84;108164;1270;24184;-76
2022/08/16 04:01:54;;;;;;;8.20;7.30;;;;;;;17.95;90.10;95939.54;108213;1271;22605;-76
2022/08/16 04:04:25;;;;;;;8.60;7.70;;;;;;;17.96;89.88;95939.29;108223;1271;24186;-76
2022/08/16 04:06:56;;;;;;;10.60;8.50;;;;;;;17.98;89.72;95939.63;108211;1271;22543;-76
2022/08/16 04:09:28;;;;;;;10.00;8.90;;;;;;;17.97;89.72;95938.76;108103;1270;41543;-76
2022/08/16 04:11:59;;;;;;;9.50;7.90;;;;;;;17.93;89.67;95945.17;108222;1270;22471;-76
2022/08/16 04:14:31;;;;;;;10.20;8.10;;;;;;;17.91;89.75;95947.02;108215;1270;22545;-76
2022/08/16 04:17:02;;;;;;;9.30;8.30;;;;;;;17.92;89.82;95954.19;108192;1270;25255;-76
2022/08/16 04:19:33;;;;;;;10.80;8.20;;;;;;;17.91;89.72;95955.52;108086;1271;33631;-76
2022/08/16 04:22:04;;;;;;;8.90;8.00;;;;;;;17.91;89.68;95955.54;108256;1270;22468;-76
2022/08/16 04:24:35;;;;;;;9.50;8.00;;;;;;;17.95;89.65;95958.47;108263;1270;22592;-76
2022/08/16 04:27:07;;;;;;;9.40;8.40;;;;;;;17.97;89.50;95957.23;108229;1270;22542;-76
2022/08/16 04:29:39;;;;;;;8.60;7.50;;;;;;;17.98;89.39;95957.39;108215;1270;23888;-76
2022/08/16 04:32:10;;;;;;;9.10;7.70;;;;;;;17.99;89.42;95961.88;108229;1271;24282;-76
2022/08/16 04:34:41;;;;;;;9.10;8.20;;;;;;;18.01;89.39;95959.27;108273;1270;25943;-76
2022/08/16 04:37:13;;;;;;;9.80;7.70;;;;;;;18.05;89.38;95961.73;108209;1270;23792;-76
2022/08/16 04:39:44;;;;;;;9.30;7.80;;;;;;;18.11;89.14;95958.14;108108;1271;33676;-76
2022/08/16 04:42:17;;;;;;;8.10;6.70;;;;;;;18.22;88.98;95955.77;108254;1270;22832;-76
2022/08/16 04:44:49;;;;;;;9.50;7.80;;;;;;;18.49;88.53;95951.77;108192;1271;22498;-76
2022/08/16 04:47:20;;;;;;;8.20;7.40;;;;;;;18.82;87.44;95951.93;108203;1270;22662;-76
2022/08/16 04:49:51;;;;;;;9.50;6.70;;;;;;;18.93;86.02;95951.00;108128;1270;29469;-76
2022/08/16 04:52:23;;;;;;;8.00;7.20;;;;;;;19.15;85.15;95948.95;108214;1271;22618;-76
2022/08/16 04:54:54;;;;;;;7.30;6.60;;;;;;;19.44;84.31;95953.67;108235;1271;22635;-76
2022/08/16 04:57:25;;;;;;;7.30;6.40;;;;;;;19.66;83.17;95953.02;108225;1271;22748;-76
2022/08/16 04:59:56;;;;;;;7.80;6.60;;;;;;;19.74;82.45;95957.89;108159;1270;31931;-79
2022/08/16 05:02:27;;;;;;;8.10;7.30;;;;;;;19.78;82.22;95956.44;108245;1271;22542;-75
2022/08/16 05:04:58;;;;;;;7.80;7.00;;;;;;;19.93;82.01;95962.89;108259;1271;23765;-75
2022/08/16 05:07:29;;;;;;;7.50;6.70;;;;;;;20.08;81.55;95966.18;108277;1271;22473;-75
2022/08/16 05:10:02;;;;;;;9.80;6.60;;;;;;;20.27;80.66;95968.63;108093;1272;26097;-75
2022/08/16 05:12:35;;;;;;;7.70;6.90;;;;;;;20.29;79.94;95970.13;108274;1270;22601;-75
2022/08/16 05:15:08;;;;;;;8.80;7.20;;;;;;;20.18;79.55;95965.30;108127;1273;22670;-75
2022/08/16 05:17:40;;;;;;;7.00;6.30;;;;;;;20.09;79.40;95969.89;108234;1271;24997;-75
2022/08/16 05:20:12;;;;;;;7.80;6.80;;;;;;;20.05;79.58;95966.13;108219;1271;22706;-75
2022/08/16 05:22:44;;;;;;;8.20;7.40;;;;;;;20.04;79.54;95963.20;108244;1271;22556;-75
2022/08/16 05:25:16;;;;;;;7.80;6.80;;;;;;;20.07;79.43;95959.41;108119;1273;24240;-75
2022/08/16 05:27:48;;;;;;;7.70;7.00;;;;;;;20.08;79.43;95960.03;108146;1271;28526;-74
2022/08/16 05:30:21;;;;;;;7.40;6.60;;;;;;;20.20;79.69;95957.58;108261;1270;25339;-75
2022/08/16 05:32:54;;;;;;;7.00;6.30;;;;;;;20.29;79.43;95962.82;108287;1270;23714;-75
2022/08/16 05:35:26;;;;;;;7.60;6.70;;;;;;;20.33;79.24;95964.73;108238;1270;25369;-76
2022/08/16 05:37:58;;;;;;;7.90;7.10;;;;;;;20.42;79.11;95969.93;108132;1270;25933;-75
2022/08/16 05:40:30;;;;;;;8.30;7.50;;;;;;;20.43;78.81;95966.73;108215;1270;22600;-75
2022/08/16 05:43:01;;;;;;;9.80;7.50;;;;;;;20.40;78.68;95967.58;108231;1270;23831;-75
2022/08/16 05:45:32;;;;;;;8.20;7.30;;;;;;;20.46;78.59;95969.86;108295;1270;22525;-75
2022/08/16 05:48:04;;;;;;;9.60;7.30;;;;;;;20.54;78.53;95972.77;108234;1270;24413;-75
2022/08/16 05:50:35;;;;;;;9.80;7.40;;;;;;;20.65;77.91;95972.58;108265;1270;22484;-75
2022/08/16 05:53:07;;;;;;;8.10;6.90;;;;;;;20.68;77.66;95976.40;108247;1270;24168;-76
2022/08/16 05:55:38;;;;;;;9.00;6.90;;;;;;;20.78;77.60;95977.26;108256;1269;25828;-76
2022/08/16 05:58:10;;;;;;;8.10;7.00;;;;;;;20.84;77.38;95975.77;108125;1271;26563;-76
2022/08/16 06:00:42;;;;;;;9.90;7.60;;;;;;;20.92;76.86;95977.41;108234;1271;22699;-76
2022/08/16 06:03:14;;;;;;;10.00;6.70;;;;;;;21.06;76.77;95975.56;108236;1270;22549;-76
2022/08/16 06:05:45;;;;;;;7.60;6.80;;;;;;;21.41;75.51;95976.13;108233;1270;22479;-76
2022/08/16 06:08:16;;;;;;;7.10;6.40;;;;;;;21.72;74.85;95973.87;108142;1270;27926;-76
2022/08/16 06:10:47;;;;;;;7.60;6.80;;;;;;;21.96;73.69;95973.79;108207;1271;22621;-76
2022/08/16 06:13:18;;;;;;;7.00;6.20;;;;;;;22.42;73.97;95974.48;108206;1270;22697;-77
2022/08/16 06:15:50;;;;;;;7.10;6.40;;;;;;;23.52;72.53;95972.14;108207;1270;25404;-77
2022/08/16 06:18:22;;;;;;;7.60;6.40;;;;;;;24.63;71.76;95972.53;108181;1270;25508;-77
2022/08/16 06:20:55;;;;;;;7.10;6.40;;;;;;;25.71;69.39;95972.79;108273;1270;24320;-77
2022/08/16 06:23:26;;;;;;;6.60;5.90;;;;;;;26.45;67.23;95973.79;108174;1271;25249;-78
2022/08/16 06:25:57;;;;;;;7.70;6.60;;;;;;;26.88;65.43;95973.46;108154;1271;22716;-78
2022/08/16 06:28:29;;;;;;;6.70;6.00;;;;;;;26.97;64.23;95972.53;108154;1271;40738;-78
2022/08/16 06:31:04;;;;;;;6.40;5.70;;;;;;;26.93;63.16;95977.70;108252;1271;22531;-78
2022/08/16 06:33:36;;;;;;;6.50;5.90;;;;;;;27.34;62.36;95975.60;108246;1271;25436;-78
2022/08/16 06:36:10;;;;;;;5.90;5.30;;;;;;;27.74;60.64;95972.36;108250;1271;24000;-78
2022/08/16 06:38:43;;;;;;;5.60;5.10;;;;;;;28.44;59.06;95977.63;108167;1270;32117;-78
2022/08/16 06:41:15;;;;;;;5.80;5.20;;;;;;;29.12;57.75;95978.16;108233;1271;22954;-78
2022/08/16 06:43:47;;;;;;;6.00;5.50;;;;;;;29.58;55.59;95984.19;108194;1270;24205;-78
2022/08/16 06:46:28;;;;;;;6.20;5.60;;;;;;;29.74;53.84;95987.05;108270;1268;22552;-78
2022/08/16 06:49:01;;;;;;;6.50;5.90;;;;;;;29.51;53.10;95985.95;108190;1270;31731;-78
2022/08/16 06:51:36;;;;;;;5.90;5.30;;;;;;;29.17;52.27;95984.56;108221;1271;22950;-78
2022/08/16 06:54:08;;;;;;;6.30;5.70;;;;;;;28.94;52.63;95981.32;108284;1270;23482;-78
2022/08/16 06:56:41;;;;;;;5.90;5.30;;;;;;;28.88;52.71;95983.68;108293;1270;22700;-78
2022/08/16 06:59:13;;;;;;;6.90;6.20;;;;;;;28.63;51.63;95985.48;108184;1270;35564;-78
2022/08/16 07:01:45;;;;;;;6.20;5.70;;;;;;;28.24;52.31;95988.31;108242;1270;22893;-78
2022/08/16 07:04:19;;;;;;;5.90;5.30;;;;;;;28.11;52.32;95995.77;108186;1271;22835;-78
2022/08/16 07:06:51;;;;;;;6.70;6.00;;;;;;;27.76;52.52;96006.20;106897;1270;1824728;-78
2022/08/16 07:09:22;;;;;;;6.60;6.00;;;;;;;27.60;52.82;96010.84;108194;1270;30557;-78
2022/08/16 07:11:53;;;;;;;6.60;5.90;;;;;;;27.50;53.20;96014.74;108201;1270;22525;-78
2022/08/16 07:14:26;;;;;;;6.10;5.50;;;;;;;27.42;54.07;96015.27;108273;1271;25904;-78
2022/08/16 07:16:59;;;;;;;7.00;6.00;;;;;;;27.35;53.15;96012.70;108236;1271;22572;-78
2022/08/16 07:19:32;;;;;;;6.80;5.80;;;;;;;26.98;53.36;96009.61;108151;1271;27282;-78
2022/08/16 07:22:05;;;;;;;6.40;5.80;;;;;;;26.86;53.70;96006.11;108272;1270;22654;-78
2022/08/16 07:24:36;;;;;;;6.60;6.00;;;;;;;27.06;53.47;96004.36;108232;1271;24445;-79
2022/08/16 07:27:10;;;;;;;6.50;5.30;;;;;;;27.54;53.60;96008.73;108227;1271;22661;-78
2022/08/16 07:29:41;;;;;;;6.80;6.10;;;;;;;28.33;53.09;96011.10;108176;1268;41960;-79
2022/08/16 07:32:13;;;;;;;5.50;5.00;;;;;;;29.50;52.69;96014.97;108286;1270;22537;-79
2022/08/16 07:34:44;;;;;;;7.90;5.40;;;;;;;30.66;51.22;96019.63;108290;1270;22498;-79
2022/08/16 07:37:15;;;;;;;5.50;5.00;;;;;;;31.50;49.41;96020.23;108311;1269;25938;-79
2022/08/16 07:39:46;;;;;;;5.30;4.90;;;;;;;32.32;49.05;96017.99;108151;1270;30789;-79
2022/08/16 07:42:17;;;;;;;5.40;4.80;;;;;;;32.93;47.27;96018.99;108228;1272;24239;-79
2022/08/16 07:44:49;;;;;;;6.60;5.90;;;;;;;33.14;46.38;96023.61;108242;1271;23936;-79
2022/08/16 07:47:21;;;;;;;6.00;5.50;;;;;;;33.29;44.66;96021.80;108240;1271;22541;-79
2022/08/16 07:49:53;;;;;;;5.40;4.90;;;;;;;33.06;43.50;96020.70;108170;1270;28272;-77
2022/08/16 07:52:24;;;;;;;5.70;5.10;;;;;;;32.91;43.27;96023.77;108224;1271;22583;-78
2022/08/16 07:54:55;;;;;;;5.90;5.20;;;;;;;33.09;44.28;96028.09;108236;1270;24203;-79
2022/08/16 07:57:26;;;;;;;5.70;5.20;;;;;;;33.99;44.75;96030.80;108283;1270;22615;-79
2022/08/16 07:59:58;;;;;;;5.50;5.00;;;;;;;34.87;44.19;96031.61;108254;1270;25829;-79
2022/08/16 08:02:30;;;;;;;7.00;5.20;;;;;;;35.17;44.07;96033.83;108312;1269;22561;-79
2022/08/16 08:05:02;;;;;;;5.90;5.40;;;;;;;35.49;44.07;96030.90;108150;1271;25352;-79
2022/08/16 08:07:33;;;;;;;6.00;4.70;;;;;;;36.15;43.47;96033.56;108330;1270;22569;-79
2022/08/16 08:10:08;;;;;;;5.90;5.40;;;;;;;35.87;41.60;96038.70;108259;1270;29515;-79
2022/08/16 08:12:39;;;;;;;6.30;5.80;;;;;;;34.77;40.67;96045.78;108336;1270;22606;-79
2022/08/16 08:15:13;;;;;;;6.00;5.40;;;;;;;33.75;42.30;96043.66;108313;1269;22561;-79
2022/08/16 08:17:44;;;;;;;6.20;5.60;;;;;;;34.16;44.00;96047.26;108244;1270;38554;-77
2022/08/16 08:20:21;;;;;;;5.90;5.40;;;;;;;35.10;41.59;96046.30;108328;1270;22561;-79
2022/08/16 08:22:53;;;;;;;5.90;5.30;;;;;;;36.45;42.36;96043.61;108335;1270;22654;-79
2022/08/16 08:25:26;;;;;;;6.00;5.40;;;;;;;37.98;40.36;96039.17;108312;1270;24365;-80
2022/08/16 08:27:59;;;;;;;6.60;5.80;;;;;;;38.48;38.38;96040.04;108185;1270;29295;-80
2022/08/16 08:30:30;;;;;;;6.80;6.20;;;;;;;36.39;36.73;96040.48;108250;1270;23862;-78
2022/08/16 08:33:02;;;;;;;7.10;6.40;;;;;;;34.51;40.25;96040.77;108345;1270;25281;-79
2022/08/16 08:35:33;;;;;;;7.40;6.70;;;;;;;33.99;41.96;96040.90;108331;1270;22572;-78
2022/08/16 08:38:07;;;;;;;7.70;6.90;;;;;;;34.12;42.69;96038.95;108177;1269;25153;-78
2022/08/16 08:40:39;;;;;;;7.20;6.50;;;;;;;34.30;42.03;96038.39;108354;1268;22524;-79
2022/08/16 08:43:12;;;;;;;8.10;7.10;;;;;;;34.86;42.22;96048.79;108227;1270;23887;-79
2022/08/16 08:45:44;;;;;;;6.90;6.30;;;;;;;35.63;41.03;96051.91;108140;1271;23249;-79
2022/08/16 08:48:15;;;;;;;6.90;6.30;;;;;;;35.62;39.91;96056.60;108219;1269;29737;-78
2022/08/16 08:50:48;;;;;;;7.10;6.20;;;;;;;36.26;39.47;96053.98;108229;1270;22715;-78
2022/08/16 08:53:19;;;;;;;6.60;6.00;;;;;;;36.35;36.68;96056.30;108239;1270;22613;-78
2022/08/16 08:55:50;;;;;;;6.70;6.10;;;;;;;35.64;39.04;96060.77;108205;1270;25047;-78
2022/08/16 08:58:23;;;;;;;7.20;6.10;;;;;;;36.98;40.22;96062.05;108136;1270;30804;-77
2022/08/16 09:00:55;;;;;;;7.20;6.50;;;;;;;38.67;39.05;96064.95;108230;1270;23411;-78
2022/08/16 09:03:26;;;;;;;7.80;6.50;;;;;;;39.48;36.09;96072.40;108266;1270;22527;-79
2022/08/16 09:05:58;;;;;;;7.40;6.70;;;;;;;39.06;35.93;96069.97;108246;1270;22611;-80
2022/08/16 09:08:30;;;;;;;7.70;6.90;;;;;;;38.85;35.16;96074.92;108193;1270;26191;-79
2022/08/16 09:11:01;;;;;;;7.50;6.60;;;;;;;38.03;34.59;96076.36;108247;1270;23317;-79
2022/08/16 09:13:33;;;;;;;7.70;7.00;;;;;;;36.40;34.72;96075.85;108303;1270;22700;-79
2022/08/16 09:16:05;;;;;;;7.90;6.60;;;;;;;34.72;37.23;96075.02;108253;1270;23850;-77
2022/08/16 09:18:36;;;;;;;7.70;7.00;;;;;;;33.92;39.04;96072.47;108182;1270;23550;-78
2022/08/16 09:21:08;;;;;;;8.10;7.00;;;;;;;33.08;40.48;96066.89;108193;1271;22478;-79
2022/08/16 09:23:40;;;;;;;8.40;7.70;;;;;;;33.03;42.11;96064.75;108133;1271;24273;-75
2022/08/16 09:26:14;;;;;;;9.20;7.70;;;;;;;32.64;41.28;96066.66;108179;1270;23862;-79
2022/08/16 09:28:46;;;;;;;8.80;7.70;;;;;;;31.45;42.60;96069.19;108135;1270;30047;-79
2022/08/16 09:31:18;;;;;;;8.20;7.30;;;;;;;30.97;44.74;96067.98;108262;1270;24364;-79
2022/08/16 09:33:51;;;;;;;9.10;8.20;;;;;;;31.09;45.72;96072.34;108258;1270;22704;-79
2022/08/16 09:36:23;;;;;;;9.40;8.00;;;;;;;31.09;45.27;96072.98;108228;1271;22565;-79
2022/08/16 09:38:56;;;;;;;9.10;8.10;;;;;;;30.81;46.11;96070.84;108201;1270;26592;-79
2022/08/16 09:41:27;;;;;;;8.50;7.60;;;;;;;30.68;46.89;96075.49;108298;1270;25373;-79
2022/08/16 09:44:02;;;;;;;9.30;8.40;;;;;;;30.76;47.44;96078.09;108260;1270;22601;-79
2022/08/16 09:46:34;;;;;;;10.20;7.80;;;;;;;30.65;47.18;96075.61;108270;1270;23920;-79
2022/08/16 09:49:05;;;;;;;8.90;8.10;;;;;;;30.36;47.28;96076.82;108185;1270;28265;-79
2022/08/16 09:51:36;;;;;;;9.40;8.50;;;;;;;29.83;48.21;96074.23;108275;1270;22526;-79
2022/08/16 09:54:09;;;;;;;10.10;9.20;;;;;;;29.64;49.94;96073.80;108258;1270;22565;-79
2022/08/16 09:56:41;;;;;;;10.50;9.30;;;;;;;29.72;50.27;96074.52;108276;1270;23358;-79
2022/08/16 09:59:14;;;;;;;10.40;8.90;;;;;;;29.42;50.36;96073.25;108214;1270;24026;-78
2022/08/16 10:01:47;;;;;;;9.70;8.70;;;;;;;29.05;51.42;96074.04;108203;1270;22554;-77
2022/08/16 10:04:19;;;;;;;10.20;8.90;;;;;;;28.77;52.22;96070.94;108248;1270;23325;-78
2022/08/16 10:06:50;;;;;;;9.70;8.80;;;;;;;28.53;53.20;96073.91;108259;1270;23843;-78
2022/08/16 10:09:22;;;;;;;11.10;8.50;;;;;;;28.48;53.86;96074.20;108161;1270;28868;-78
2022/08/16 10:14:41;;;;;;;10.80;9.60;;;;;;;28.61;54.01;96072.63;108224;1270;22558;-78
2022/08/16 10:17:13;;;;;;;9.60;8.70;;;;;;;28.38;54.26;96071.98;108225;1270;22651;-78
2022/08/16 10:19:45;;;;;;;9.40;8.50;;;;;;;28.25;55.51;96066.73;108104;1271;34514;-78
2022/08/16 10:22:17;;;;;;;9.30;8.30;;;;;;;28.45;56.19;96066.91;108193;1271;23909;-78
2022/08/16 10:24:48;;;;;;;10.90;8.20;;;;;;;28.73;55.93;96069.45;108218;1271;22591;-77
2022/08/16 10:27:19;;;;;;;9.30;8.30;;;;;;;28.81;55.23;96071.27;108187;1273;23098;-78
2022/08/16 10:29:51;;;;;;;9.40;8.40;;;;;;;28.65;54.80;96074.38;108165;1270;25845;-77
2022/08/16 10:32:22;;;;;;;9.00;8.10;;;;;;;28.29;55.52;96071.20;108230;1270;25274;-75
2022/08/16 10:34:53;;;;;;;9.70;8.70;;;;;;;28.16;56.62;96073.36;108244;1269;23814;-75
2022/08/16 10:37:25;;;;;;;8.90;8.00;;;;;;;28.19;56.44;96073.87;108245;1270;22540;-75
2022/08/16 10:39:56;;;;;;;10.30;8.80;;;;;;;27.92;56.34;96072.05;108124;1271;24929;-75
2022/08/16 10:42:28;;;;;;;9.40;8.50;;;;;;;27.85;57.40;96066.90;108230;1271;22569;-75
2022/08/16 10:45:01;;;;;;;9.30;8.40;;;;;;;27.83;57.55;96061.23;108248;1270;22616;-75
2022/08/16 10:47:37;;;;;;;9.60;8.60;;;;;;;27.58;58.17;96062.99;108246;1270;22562;-75
2022/08/16 10:50:13;;;;;;;10.00;8.30;;;;;;;27.56;59.09;96059.11;108227;1270;22915;-75
2022/08/16 10:52:45;;;;;;;10.80;8.70;;;;;;;27.72;59.35;96053.55;108252;1270;22693;-75
2022/08/16 10:55:19;;;;;;;9.50;8.60;;;;;;;27.72;58.46;96053.48;108162;1271;23845;-74
2022/08/16 10:57:54;;;;;;;9.90;8.60;;;;;;;27.53;57.97;96049.33;108188;1270;25303;-75
2022/08/16 11:00:25;;;;;;;9.00;8.00;;;;;;;27.46;58.22;96043.02;108220;1270;22583;-75
2022/08/16 11:02:57;;;;;;;8.90;8.00;;;;;;;27.33;58.81;96039.71;108259;1270;23187;-75
2022/08/16 11:05:29;;;;;;;10.10;8.50;;;;;;;27.24;58.54;96042.09;108210;1270;22559;-75
2022/08/16 11:08:01;;;;;;;9.50;8.50;;;;;;;27.30;58.87;96039.57;108171;1270;43395;-74
2022/08/16 11:10:35;;;;;;;8.60;7.50;;;;;;;27.44;59.44;96042.88;108244;1270;22662;-75
2022/08/16 11:13:10;;;;;;;10.10;8.00;;;;;;;27.66;59.26;96041.38;108278;1270;25877;-74
2022/08/16 11:15:43;;;;;;;8.40;7.60;;;;;;;27.96;59.43;96043.52;108224;1270;22476;-72
2022/08/16 11:18:14;;;;;;;9.50;7.50;;;;;;;28.14;57.51;96042.86;108189;1270;31362;-74
2022/08/16 11:20:47;;;;;;;9.60;7.40;;;;;;;27.97;56.64;96040.31;108276;1270;22561;-75
2022/08/16 11:23:19;;;;;;;8.90;7.80;;;;;;;27.93;57.32;96042.53;108283;1270;23481;-75
2022/08/16 11:25:51;;;;;;;9.10;7.40;;;;;;;28.12;56.43;96041.93;108105;1273;22484;-75
2022/08/16 11:28:23;;;;;;;8.60;6.90;;;;;;;28.17;56.10;96044.70;108219;1270;28681;-76
2022/08/16 11:30:58;;;;;;;10.30;6.90;;;;;;;28.26;55.28;96048.48;108249;1270;23282;-76
2022/08/16 11:33:32;;;;;;;9.40;6.40;;;;;;;28.30;54.51;96049.27;108299;1270;22566;-76
2022/08/16 11:36:03;;;;;;;8.50;7.10;;;;;;;28.24;54.07;96046.50;108268;1270;22649;-76
2022/08/16 11:38:34;;;;;;;7.40;6.10;;;;;;;28.19;54.38;96046.46;108160;1270;35775;-76
2022/08/16 11:41:07;;;;;;;7.50;6.60;;;;;;;28.24;53.30;96045.23;108254;1270;25268;-76
2022/08/16 11:43:41;;;;;;;7.60;6.40;;;;;;;28.35;54.39;96051.52;108252;1270;23473;-76
2022/08/16 11:46:16;;;;;;;9.50;6.00;;;;;;;28.54;53.99;96055.27;108280;1270;22658;-76
2022/08/16 11:48:49;;;;;;;9.20;6.80;;;;;;;28.74;55.24;96055.41;108155;1270;37553;-76